Time;durP1;ratioP1;P1;durP2;ratioP2;P2;SDS_P1;SDS_P2;PMS_P1;PMS_P2;Temp;Humidity;BMP_temperature;BMP_pressure;BME280_temperature;BME280_humidity;BME280_pressure;Samples;Min_cycle;Max_cycle;Signal;HPM_P1;HPM_P2
2022/04/03 00:01:19;;;;;;;3.40;2.10;;;2.80;99.90;;;;;;5095278;28;20159;-65
2022/04/03 00:03:45;;;;;;;5.83;2.43;;;2.70;99.90;;;;;;5095825;28;20229;-67
2022/04/03 00:06:10;;;;;;;3.53;2.27;;;2.70;99.90;;;;;;5093237;28;20167;-68
2022/04/03 00:08:36;;;;;;;3.63;2.00;;;2.70;99.90;;;;;;5093429;28;20648;-65
2022/04/03 00:11:02;;;;;;;4.43;2.00;;;2.70;99.90;;;;;;5093308;28;20593;-66
2022/04/03 00:13:28;;;;;;;4.70;2.13;;;2.70;99.90;;;;;;5093688;28;20174;-66
2022/04/03 00:15:55;;;;;;;4.20;2.20;;;2.70;99.90;;;;;;5093771;28;20650;-65
2022/04/03 00:18:21;;;;;;;3.50;2.27;;;2.70;99.90;;;;;;5095047;28;20151;-66
2022/04/03 00:20:47;;;;;;;4.87;1.93;;;2.70;99.90;;;;;;5095583;28;20201;-66
2022/04/03 00:23:13;;;;;;;3.70;1.73;;;2.70;99.90;;;;;;5095308;28;20162;-66
2022/04/03 00:25:39;;;;;;;2.27;1.93;;;2.70;99.90;;;;;;5115030;28;20190;-67
2022/04/03 00:28:06;;;;;;;6.30;2.47;;;2.70;99.90;;;;;;5100698;28;20602;-66
2022/04/03 00:30:32;;;;;;;4.23;2.50;;;2.70;99.90;;;;;;5102144;28;20159;-66
2022/04/03 00:32:58;;;;;;;2.87;2.03;;;2.60;99.90;;;;;;5107198;28;20173;-66
2022/04/03 00:35:24;;;;;;;3.73;1.90;;;2.70;99.90;;;;;;5087953;28;20293;-66
2022/04/03 00:37:49;;;;;;;5.87;2.30;;;2.70;99.90;;;;;;5087183;28;20187;-66
2022/04/03 00:40:16;;;;;;;2.80;1.80;;;2.70;99.90;;;;;;5106022;28;20179;-65
2022/04/03 00:42:41;;;;;;;2.23;2.00;;;2.70;99.90;;;;;;5102179;28;20162;-66
2022/04/03 00:45:08;;;;;;;2.63;1.80;;;2.70;99.90;;;;;;5101032;28;20171;-67
2022/04/03 00:47:34;;;;;;;3.63;1.97;;;2.70;99.90;;;;;;5097678;28;20162;-65
2022/04/03 00:50:00;;;;;;;6.00;2.10;;;2.70;99.90;;;;;;5096972;28;20185;-67
2022/04/03 00:52:27;;;;;;;4.23;1.87;;;2.60;99.90;;;;;;5097209;28;20195;-67
2022/04/03 00:54:53;;;;;;;2.57;1.73;;;2.60;99.90;;;;;;5097074;28;20236;-66
2022/04/03 00:57:23;;;;;;;3.97;2.00;;;2.50;99.90;;;;;;5079177;28;20278;-66
2022/04/03 00:59:49;;;;;;;2.13;1.80;;;2.50;99.90;;;;;;5097465;28;20162;-66
2022/04/03 01:02:15;;;;;;;7.63;2.60;;;2.60;99.90;;;;;;5096752;28;20471;-67
2022/04/03 01:04:41;;;;;;;2.37;1.97;;;2.50;99.90;;;;;;5096535;28;20159;-66
2022/04/03 01:07:07;;;;;;;2.67;1.67;;;2.50;99.90;;;;;;5096807;28;20259;-66
2022/04/03 01:09:33;;;;;;;4.23;1.70;;;2.40;99.90;;;;;;5078857;28;20585;-66
2022/04/03 01:11:59;;;;;;;2.63;1.60;;;2.40;99.90;;;;;;5096699;28;20242;-66
2022/04/03 01:14:34;;;;;;;3.00;1.77;;;2.40;99.90;;;;;;5096894;28;20209;-66
2022/04/03 01:17:01;;;;;;;2.63;1.87;;;2.30;99.90;;;;;;5097044;28;20231;-66
2022/04/03 01:19:27;;;;;;;2.50;1.40;;;2.20;99.90;;;;;;5096761;28;20661;-68
2022/04/03 01:21:53;;;;;;;3.47;2.17;;;2.20;99.90;;;;;;5096945;28;20159;-67
2022/04/03 01:24:22;;;;;;;2.27;2.00;;;2.40;99.90;;;;;;5096634;28;20193;-65
2022/04/03 01:26:49;;;;;;;3.63;1.97;;;2.30;99.90;;;;;;5096900;28;20174;-65
2022/04/03 01:29:15;;;;;;;2.97;1.90;;;2.20;99.90;;;;;;5098677;28;20209;-67
2022/04/03 01:31:42;;;;;;;3.30;2.00;;;2.20;99.90;;;;;;5096884;28;20538;-65
2022/04/03 01:34:07;;;;;;;2.13;1.63;;;2.20;99.90;;;;;;5078587;28;20281;-66
2022/04/03 01:36:33;;;;;;;2.23;1.70;;;2.20;99.90;;;;;;5096803;28;20701;-66
2022/04/03 01:38:59;;;;;;;2.47;1.57;;;2.00;99.90;;;;;;5078425;28;20175;-65
2022/04/03 01:41:25;;;;;;;2.10;1.60;;;2.10;99.90;;;;;;5095646;28;20503;-66
2022/04/03 01:43:50;;;;;;;1.87;1.60;;;2.20;99.90;;;;;;5096040;28;20166;-66
2022/04/03 01:46:16;;;;;;;4.27;1.53;;;2.10;99.90;;;;;;5095900;28;20171;-65
2022/04/03 01:48:42;;;;;;;2.53;1.87;;;2.10;99.90;;;;;;5078030;28;20669;-67
2022/04/03 01:51:07;;;;;;;3.13;1.90;;;1.90;99.90;;;;;;5095522;28;20506;-65
2022/04/03 01:53:33;;;;;;;2.50;1.70;;;1.90;99.90;;;;;;5096053;28;20206;-66
2022/04/03 01:56:04;;;;;;;1.70;1.50;;;2.00;99.90;;;;;;5095166;28;20310;-65
2022/04/03 01:58:30;;;;;;;3.27;1.77;;;1.90;99.90;;;;;;5095820;28;20573;-66
2022/04/03 02:00:56;;;;;;;3.13;1.57;;;1.80;99.90;;;;;;5095904;28;20212;-65
2022/04/03 02:03:22;;;;;;;2.67;1.43;;;1.80;99.90;;;;;;5095824;28;20159;-65
2022/04/03 02:05:48;;;;;;;3.47;1.77;;;1.90;99.90;;;;;;5095965;28;20168;-65
2022/04/03 02:08:14;;;;;;;4.00;2.20;;;1.80;99.90;;;;;;5095606;28;20255;-67
2022/04/03 02:10:40;;;;;;;2.57;2.10;;;1.70;99.90;;;;;;5095900;28;20171;-65
2022/04/03 02:13:05;;;;;;;2.07;1.50;;;1.80;99.90;;;;;;5095237;28;20174;-64
2022/04/03 02:15:31;;;;;;;5.43;1.97;;;1.80;99.90;;;;;;5095314;28;20278;-65
2022/04/03 02:17:57;;;;;;;3.10;1.70;;;1.80;99.90;;;;;;5095370;28;20506;-66
2022/04/03 02:20:23;;;;;;;2.07;1.60;;;1.70;99.90;;;;;;5095447;28;20167;-65
2022/04/03 02:22:48;;;;;;;2.50;1.73;;;1.70;99.90;;;;;;5091761;28;20627;-65
2022/04/03 02:25:14;;;;;;;2.83;1.60;;;1.60;99.90;;;;;;5095600;28;20531;-66
2022/04/03 02:27:43;;;;;;;1.73;1.47;;;1.70;99.90;;;;;;5095175;28;20209;-66
2022/04/03 02:30:10;;;;;;;4.07;1.70;;;1.70;99.90;;;;;;5111396;28;20614;-66
2022/04/03 02:32:39;;;;;;;1.87;1.60;;;1.70;99.90;;;;;;5095025;28;20238;-64
2022/04/03 02:35:07;;;;;;;3.47;2.20;;;1.50;99.90;;;;;;5094815;28;20174;-65
2022/04/03 02:37:37;;;;;;;2.87;1.73;;;1.50;99.90;;;;;;5095345;28;20177;-66
2022/04/03 02:40:04;;;;;;;1.67;1.40;;;1.40;99.90;;;;;;5095512;28;20167;-66
2022/04/03 02:42:30;;;;;;;3.53;1.90;;;1.40;99.90;;;;;;5094865;28;20250;-65
2022/04/03 02:44:57;;;;;;;2.60;1.50;;;1.40;99.90;;;;;;5095360;28;20159;-66
2022/04/03 02:47:23;;;;;;;2.70;1.70;;;1.30;99.90;;;;;;5094465;28;20706;-65
2022/04/03 02:49:50;;;;;;;2.47;1.60;;;1.20;99.90;;;;;;5094763;28;20502;-66
2022/04/03 02:52:17;;;;;;;3.77;1.73;;;1.20;99.90;;;;;;5095109;28;20159;-65
2022/04/03 02:54:44;;;;;;;3.70;1.70;;;1.10;99.90;;;;;;5098462;28;20226;-67
2022/04/03 02:57:11;;;;;;;3.57;1.90;;;1.10;99.90;;;;;;5098284;28;20261;-65
2022/04/03 02:59:37;;;;;;;2.00;1.57;;;1.10;99.90;;;;;;5096769;28;20206;-66
2022/04/03 03:02:03;;;;;;;3.03;1.90;;;1.00;99.90;;;;;;5084863;28;20187;-65
2022/04/03 03:04:28;;;;;;;4.07;1.90;;;1.00;99.90;;;;;;5100990;28;20300;-65
2022/04/03 03:06:54;;;;;;;2.30;1.77;;;0.90;99.90;;;;;;5098820;28;20190;-65
2022/04/03 03:09:20;;;;;;;2.37;1.63;;;0.80;99.90;;;;;;5094740;28;20474;-67
2022/04/03 03:11:45;;;;;;;3.70;2.07;;;0.90;99.90;;;;;;5094896;28;20167;-65
2022/04/03 03:14:11;;;;;;;4.90;2.67;;;0.80;99.90;;;;;;5095644;28;20163;-65
2022/04/03 03:16:36;;;;;;;2.20;2.00;;;0.70;99.90;;;;;;5096148;28;20241;-66
2022/04/03 03:19:02;;;;;;;3.63;2.27;;;0.70;99.90;;;;;;5078575;28;20202;-65
2022/04/03 03:21:28;;;;;;;3.57;2.00;;;0.70;99.90;;;;;;5096720;28;20268;-66
2022/04/03 03:23:54;;;;;;;3.03;1.80;;;0.70;99.90;;;;;;5095708;28;20159;-65
2022/04/03 03:26:20;;;;;;;1.77;1.63;;;0.60;99.90;;;;;;5097248;28;20202;-68
2022/04/03 03:28:46;;;;;;;2.03;1.63;;;0.60;99.90;;;;;;5099207;28;20163;-66
2022/04/03 03:31:12;;;;;;;2.67;1.60;;;0.50;99.90;;;;;;5098392;28;20177;-68
2022/04/03 03:33:37;;;;;;;3.10;2.10;;;0.50;99.90;;;;;;5098857;28;20186;-66
2022/04/03 03:36:05;;;;;;;2.10;1.90;;;0.50;99.90;;;;;;5084150;28;20247;-66
2022/04/03 03:38:31;;;;;;;4.67;1.83;;;0.50;99.90;;;;;;5094976;28;20163;-65
2022/04/03 03:40:56;;;;;;;4.20;2.23;;;0.40;99.90;;;;;;5094563;28;20485;-65
2022/04/03 03:43:22;;;;;;;2.97;2.07;;;0.50;99.90;;;;;;5095410;28;20166;-69
2022/04/03 03:45:47;;;;;;;2.30;2.00;;;0.50;99.90;;;;;;5096072;28;20164;-66
2022/04/03 03:48:13;;;;;;;4.57;2.10;;;0.50;99.90;;;;;;5096549;28;20271;-66
2022/04/03 03:50:39;;;;;;;3.27;2.30;;;0.40;99.90;;;;;;5095317;28;20575;-66
2022/04/03 03:53:04;;;;;;;2.93;2.30;;;0.30;99.90;;;;;;5076249;28;20243;-66
2022/04/03 03:55:30;;;;;;;4.70;2.10;;;0.20;99.90;;;;;;5094927;28;20222;-66
2022/04/03 03:57:56;;;;;;;4.20;1.90;;;0.10;99.90;;;;;;5094221;28;20228;-65
2022/04/03 04:00:21;;;;;;;3.73;2.23;;;0.30;99.90;;;;;;5094985;28;20151;-66
2022/04/03 04:02:47;;;;;;;8.17;2.60;;;0.20;99.90;;;;;;5094952;28;20204;-66
2022/04/03 04:05:12;;;;;;;2.80;1.97;;;0.30;99.90;;;;;;5094005;28;20223;-68
2022/04/03 04:07:45;;;;;;;4.57;2.30;;;0.20;99.90;;;;;;5094110;28;20214;-66
2022/04/03 04:10:12;;;;;;;3.83;2.33;;;0.20;99.90;;;;;;5090860;28;20575;-66
2022/04/03 04:12:39;;;;;;;5.20;1.90;;;0.10;99.90;;;;;;5093995;28;20162;-66
2022/04/03 04:15:05;;;;;;;5.40;2.60;;;0.20;99.90;;;;;;5093423;28;20163;-65
2022/04/03 04:17:45;;;;;;;6.53;2.27;;;0.20;99.90;;;;;;5094246;28;20166;-66
2022/04/03 04:20:16;;;;;;;2.83;1.90;;;0.20;99.90;;;;;;5093923;28;20250;-66
2022/04/03 04:22:43;;;;;;;5.67;2.57;;;0.10;99.90;;;;;;5093635;28;20186;-65
2022/04/03 04:25:11;;;;;;;5.20;2.30;;;0.20;99.90;;;;;;5093822;28;20611;-65
2022/04/03 04:27:37;;;;;;;3.07;1.93;;;0.20;99.90;;;;;;5093599;28;20166;-67
2022/04/03 04:30:04;;;;;;;6.27;3.07;;;0.10;99.90;;;;;;5094536;28;20187;-67
2022/04/03 04:32:30;;;;;;;4.53;2.80;;;0.00;99.90;;;;;;5093959;28;20165;-65
2022/04/03 04:34:55;;;;;;;5.33;2.43;;;0.10;99.90;;;;;;5094102;28;20168;-65
2022/04/03 04:37:21;;;;;;;4.27;2.40;;;0.20;99.90;;;;;;5093838;28;20214;-65
2022/04/03 04:39:47;;;;;;;3.73;2.47;;;0.00;99.90;;;;;;5093467;28;20179;-66
2022/04/03 04:42:13;;;;;;;4.93;2.63;;;0.10;99.90;;;;;;5093437;28;20179;-68
2022/04/03 04:44:40;;;;;;;2.67;2.10;;;0.10;99.90;;;;;;5093539;28;20166;-65
2022/04/03 04:47:06;;;;;;;8.00;3.00;;;0.20;99.90;;;;;;5094001;28;20272;-67
2022/04/03 04:49:31;;;;;;;4.10;2.57;;;0.10;99.90;;;;;;5095083;28;20168;-65
2022/04/03 04:51:57;;;;;;;2.57;2.23;;;0.10;99.90;;;;;;5098392;28;20167;-68
2022/04/03 04:54:25;;;;;;;7.87;2.83;;;0.00;99.90;;;;;;5098467;28;20178;-65
2022/04/03 04:56:51;;;;;;;7.83;2.70;;;0.10;99.90;;;;;;5079906;28;20763;-66
2022/04/03 04:59:17;;;;;;;5.57;2.93;;;0.10;99.90;;;;;;5073425;28;20194;-66
2022/04/03 05:01:42;;;;;;;3.47;2.47;;;0.10;99.90;;;;;;5072524;28;20186;-67
2022/04/03 05:04:08;;;;;;;3.43;2.67;;;0.00;99.90;;;;;;5072710;28;20178;-67
2022/04/03 05:06:35;;;;;;;3.70;2.30;;;0.10;99.90;;;;;;5072806;28;20167;-65
2022/04/03 05:09:03;;;;;;;3.33;3.03;;;0.00;99.90;;;;;;5072962;28;20265;-66
2022/04/03 05:11:29;;;;;;;3.93;2.70;;;0.00;99.90;;;;;;5074201;28;20160;-66
2022/04/03 05:13:55;;;;;;;4.37;2.70;;;0.10;99.90;;;;;;5078404;28;20247;-67
2022/04/03 05:16:21;;;;;;;3.23;2.77;;;0.10;99.90;;;;;;5057270;28;20310;-67
2022/04/03 05:18:47;;;;;;;4.43;2.57;;;0.00;99.90;;;;;;5076230;28;20152;-65
2022/04/03 05:21:13;;;;;;;4.50;2.40;;;0.00;99.90;;;;;;5076117;28;20394;-67
2022/04/03 05:23:39;;;;;;;3.80;2.80;;;0.00;99.90;;;;;;5075904;28;20272;-66
2022/04/03 05:26:05;;;;;;;5.00;2.80;;;0.00;99.90;;;;;;5075890;28;20164;-67
2022/04/03 05:28:31;;;;;;;4.07;2.70;;;0.00;99.90;;;;;;5076259;28;20220;-67
2022/04/03 05:30:58;;;;;;;4.43;2.80;;;0.00;99.90;;;;;;5076364;28;20160;-67
2022/04/03 05:33:24;;;;;;;5.40;2.60;;;0.20;99.90;;;;;;5076099;28;20164;-66
2022/04/03 05:35:50;;;;;;;4.40;2.63;;;0.10;99.90;;;;;;5075924;28;20196;-66
2022/04/03 05:38:16;;;;;;;4.63;3.07;;;0.10;99.90;;;;;;5076473;28;20195;-67
2022/04/03 05:40:42;;;;;;;5.00;3.03;;;0.20;99.90;;;;;;5075496;28;20159;-66
2022/04/03 05:43:08;;;;;;;4.47;2.63;;;0.20;99.90;;;;;;5075751;28;20217;-66
2022/04/03 05:45:34;;;;;;;5.57;3.03;;;0.30;99.90;;;;;;5079741;28;20160;-66
2022/04/03 05:48:01;;;;;;;4.10;3.00;;;0.20;99.90;;;;;;5079295;28;20257;-67
2022/04/03 05:50:27;;;;;;;6.70;2.93;;;0.20;99.90;;;;;;5061669;28;20514;-65
2022/04/03 05:52:53;;;;;;;6.33;2.83;;;0.30;99.90;;;;;;5080289;28;20195;-67
2022/04/03 05:55:20;;;;;;;3.70;2.57;;;0.30;99.90;;;;;;5083280;28;20264;-65
2022/04/03 05:57:48;;;;;;;6.37;2.57;;;0.40;99.90;;;;;;5076657;28;20174;-66
2022/04/03 06:00:16;;;;;;;5.80;2.53;;;0.30;99.90;;;;;;5075281;28;20184;-66
2022/04/03 06:02:48;;;;;;;7.20;2.93;;;0.40;99.90;;;;;;5075742;28;20182;-66
2022/04/03 06:05:16;;;;;;;8.40;3.07;;;0.60;99.90;;;;;;5075747;28;20167;-67
2022/04/03 06:07:42;;;;;;;4.00;2.77;;;0.60;99.90;;;;;;5075957;28;20164;-68
2022/04/03 06:10:08;;;;;;;4.73;3.20;;;0.60;99.90;;;;;;5057692;28;20183;-67
2022/04/03 06:12:34;;;;;;;5.10;2.53;;;0.50;99.90;;;;;;5075876;28;20611;-66
2022/04/03 06:15:00;;;;;;;5.10;2.60;;;0.60;99.90;;;;;;5075946;28;20245;-66
2022/04/03 06:17:25;;;;;;;3.63;2.77;;;0.60;99.90;;;;;;5075711;28;20199;-67
2022/04/03 06:19:51;;;;;;;8.03;2.87;;;0.60;99.90;;;;;;5075293;28;20500;-66
2022/04/03 06:22:16;;;;;;;3.93;2.57;;;0.70;99.90;;;;;;5075077;28;20168;-65
2022/04/03 06:24:42;;;;;;;2.97;2.40;;;0.80;99.90;;;;;;5074923;28;20160;-67
2022/04/03 06:27:08;;;;;;;6.63;2.60;;;0.90;99.90;;;;;;5075024;28;20175;-65
2022/04/03 06:29:33;;;;;;;6.90;2.70;;;0.90;99.90;;;;;;5074559;28;20168;-65
2022/04/03 06:31:59;;;;;;;3.33;2.60;;;1.00;99.90;;;;;;5074946;28;20164;-66
2022/04/03 06:34:24;;;;;;;3.43;2.50;;;1.10;99.90;;;;;;5057109;28;20178;-66
2022/04/03 06:36:50;;;;;;;5.43;2.40;;;1.20;99.90;;;;;;5075212;28;20224;-66
2022/04/03 06:39:16;;;;;;;3.90;2.23;;;1.30;99.90;;;;;;5057467;28;20168;-66
2022/04/03 06:41:42;;;;;;;7.53;2.50;;;1.30;99.90;;;;;;5074671;28;20221;-67
2022/04/03 06:44:08;;;;;;;3.03;2.20;;;1.20;99.90;;;;;;5075046;28;20591;-65
2022/04/03 06:46:34;;;;;;;3.27;2.40;;;1.50;99.90;;;;;;5074985;28;20207;-66
2022/04/03 06:49:00;;;;;;;5.17;2.57;;;1.50;99.90;;;;;;5074723;28;20163;-66
2022/04/03 06:51:26;;;;;;;5.23;2.43;;;1.60;99.90;;;;;;5056821;28;20179;-67
2022/04/03 06:53:52;;;;;;;4.00;2.20;;;1.70;99.90;;;;;;5056479;28;20603;-68
2022/04/03 06:56:19;;;;;;;3.57;2.20;;;1.80;99.90;;;;;;5089521;28;20227;-66
2022/04/03 06:58:45;;;;;;;3.63;2.17;;;1.80;99.90;;;;;;5094813;28;20189;-65
2022/04/03 07:01:11;;;;;;;4.50;2.70;;;1.80;99.90;;;;;;5094518;28;20198;-66
2022/04/03 07:03:37;;;;;;;2.60;2.33;;;1.80;99.90;;;;;;5094887;28;20155;-65
2022/04/03 07:06:03;;;;;;;5.90;2.40;;;1.90;99.90;;;;;;5094783;28;20174;-65
2022/04/03 07:08:29;;;;;;;5.03;3.30;;;2.00;99.90;;;;;;5094463;28;20199;-68
2022/04/03 07:10:55;;;;;;;3.17;2.53;;;2.10;99.90;;;;;;5095168;28;20159;-65
2022/04/03 07:13:21;;;;;;;7.73;3.07;;;2.30;99.90;;;;;;5093175;28;20216;-65
2022/04/03 07:15:49;;;;;;;2.97;2.33;;;2.30;99.90;;;;;;5094174;28;20202;-66
2022/04/03 07:18:16;;;;;;;3.50;2.33;;;2.40;99.90;;;;;;5094417;28;20591;-65
2022/04/03 07:20:45;;;;;;;4.20;2.43;;;2.40;99.90;;;;;;5094220;28;20587;-66
2022/04/03 07:23:10;;;;;;;3.33;2.33;;;2.50;99.90;;;;;;5094537;28;20174;-66
2022/04/03 07:25:36;;;;;;;6.07;2.40;;;2.50;99.90;;;;;;5094704;28;20167;-65
2022/04/03 07:28:02;;;;;;;4.27;2.60;;;2.70;99.90;;;;;;5094276;28;20166;-66
2022/04/03 07:30:27;;;;;;;4.53;2.20;;;2.80;99.90;;;;;;5094231;28;20221;-66
2022/04/03 07:32:53;;;;;;;2.87;2.17;;;2.80;99.90;;;;;;5094901;28;20211;-66
2022/04/03 07:35:18;;;;;;;2.67;2.27;;;2.90;99.90;;;;;;5094585;28;20599;-65
2022/04/03 07:37:44;;;;;;;3.13;2.00;;;2.80;99.90;;;;;;5095004;28;20202;-66
2022/04/03 07:40:11;;;;;;;2.50;2.10;;;3.00;99.90;;;;;;5097409;28;20284;-65
2022/04/03 07:42:39;;;;;;;4.00;2.20;;;3.00;99.90;;;;;;5095464;28;20293;-66
2022/04/03 07:45:05;;;;;;;5.20;2.43;;;3.20;99.90;;;;;;5095512;28;20221;-65
2022/04/03 07:47:31;;;;;;;4.37;2.50;;;3.30;99.90;;;;;;5095281;28;20182;-66
2022/04/03 07:49:56;;;;;;;3.23;2.07;;;3.30;99.90;;;;;;5094435;28;20590;-67
2022/04/03 07:52:22;;;;;;;2.67;2.20;;;3.60;99.90;;;;;;5094440;28;20236;-67
2022/04/03 07:54:48;;;;;;;3.37;2.47;;;3.40;99.90;;;;;;5088887;28;20304;-66
2022/04/03 07:57:17;;;;;;;2.30;2.10;;;3.30;99.90;;;;;;5074307;28;20206;-67
2022/04/03 07:59:42;;;;;;;4.23;2.47;;;3.50;99.90;;;;;;5074490;28;20172;-68
2022/04/03 08:02:08;;;;;;;3.53;2.20;;;3.70;99.90;;;;;;5073885;28;20170;-65
2022/04/03 08:04:33;;;;;;;2.60;1.97;;;3.80;99.90;;;;;;5073920;28;20313;-66
2022/04/03 08:06:59;;;;;;;2.53;1.87;;;4.00;99.90;;;;;;5073658;28;20186;-66
2022/04/03 08:09:25;;;;;;;3.83;2.07;;;4.00;99.50;;;;;;5073626;28;20193;-66
2022/04/03 08:11:51;;;;;;;5.03;2.00;;;3.90;99.90;;;;;;5074191;28;20185;-66
2022/04/03 08:14:17;;;;;;;2.57;1.83;;;3.90;99.80;;;;;;5074192;28;20164;-66
2022/04/03 08:16:43;;;;;;;3.13;2.03;;;3.70;99.90;;;;;;5071226;28;20208;-66
2022/04/03 08:19:09;;;;;;;6.17;1.83;;;3.80;99.90;;;;;;5074282;28;20168;-66
2022/04/03 08:21:35;;;;;;;3.17;2.07;;;3.90;99.80;;;;;;5074307;28;20159;-65
2022/04/03 08:24:01;;;;;;;4.33;1.73;;;4.10;99.20;;;;;;5073944;28;20583;-66
2022/04/03 08:26:26;;;;;;;2.43;1.80;;;4.20;97.60;;;;;;5074358;28;20175;-67
2022/04/03 08:28:53;;;;;;;2.70;1.60;;;4.40;94.40;;;;;;5074036;28;20504;-68
2022/04/03 08:31:20;;;;;;;3.10;1.50;;;4.10;95.10;;;;;;5073954;28;20164;-66
2022/04/03 08:33:47;;;;;;;2.23;1.70;;;4.20;93.90;;;;;;5074978;28;20171;-69
2022/04/03 08:36:14;;;;;;;1.27;1.17;;;4.30;93.80;;;;;;5074518;28;20211;-67
2022/04/03 08:38:39;;;;;;;3.30;1.60;;;4.10;85.10;;;;;;5054600;28;20185;-66
2022/04/03 08:41:05;;;;;;;3.07;1.57;;;4.30;79.90;;;;;;5053188;28;20162;-67
2022/04/03 08:43:32;;;;;;;2.30;1.70;;;4.50;75.60;;;;;;5068195;28;20180;-64
2022/04/03 08:45:58;;;;;;;1.53;1.20;;;4.50;74.40;;;;;;5073576;28;20199;-67
2022/04/03 08:48:26;;;;;;;1.43;1.30;;;4.60;73.90;;;;;;5073943;28;20164;-68
2022/04/03 08:50:54;;;;;;;3.70;1.33;;;4.60;74.30;;;;;;5062610;28;20187;-66
2022/04/03 08:53:26;;;;;;;4.60;1.20;;;4.60;73.40;;;;;;5057297;28;20170;-66
2022/04/03 08:55:52;;;;;;;2.80;1.47;;;4.50;74.40;;;;;;5072276;28;20250;-66
2022/04/03 08:58:18;;;;;;;2.30;1.50;;;4.60;74.50;;;;;;5059277;28;20549;-67
2022/04/03 09:00:44;;;;;;;3.20;1.57;;;4.60;73.30;;;;;;5077121;28;20220;-65
2022/04/03 09:03:12;;;;;;;1.30;1.20;;;4.70;72.70;;;;;;5059033;28;20179;-66
2022/04/03 09:05:40;;;;;;;3.03;1.47;;;4.60;72.20;;;;;;5066892;28;20468;-68
2022/04/03 09:08:07;;;;;;;1.40;1.03;;;4.50;71.90;;;;;;5097433;28;20614;-65
2022/04/03 09:10:33;;;;;;;1.30;1.20;;;4.60;70.40;;;;;;5088842;28;20229;-65
2022/04/03 09:12:59;;;;;;;1.80;1.30;;;4.40;68.10;;;;;;5097230;28;20198;-65
2022/04/03 09:15:26;;;;;;;1.77;1.10;;;4.40;69.00;;;;;;5077234;28;20188;-66
2022/04/03 09:17:57;;;;;;;2.73;1.17;;;4.70;69.30;;;;;;5073159;28;20207;-65
2022/04/03 09:20:26;;;;;;;1.47;1.13;;;4.70;68.20;;;;;;5072914;28;20180;-67
2022/04/03 09:22:59;;;;;;;1.20;1.10;;;4.70;68.60;;;;;;5097377;28;20165;-67
2022/04/03 09:25:31;;;;;;;2.27;1.47;;;4.80;69.60;;;;;;5097549;28;20171;-68
2022/04/03 09:27:59;;;;;;;1.83;1.30;;;4.90;66.10;;;;;;5100243;28;20165;-66
2022/04/03 09:30:47;;;;;;;3.83;1.60;;;4.50;60.70;;;;;;5086019;28;20661;-66
2022/04/03 09:33:19;;;;;;;2.60;1.90;;;4.60;60.50;;;;;;5105030;28;20166;-65
2022/04/03 09:36:01;;;;;;;3.13;1.50;;;4.70;62.30;;;;;;5097503;28;20332;-65
2022/04/03 09:38:28;;;;;;;2.27;1.60;;;4.70;62.00;;;;;;5095829;28;20173;-66
2022/04/03 09:40:55;;;;;;;1.83;1.33;;;4.90;60.70;;;;;;5101352;28;20169;-65
2022/04/03 09:43:40;;;;;;;3.70;1.73;;;4.70;60.80;;;;;;5102558;28;20161;-66
2022/04/03 09:46:10;;;;;;;2.20;1.40;;;4.70;61.40;;;;;;5101479;28;20160;-65
2022/04/03 09:48:42;;;;;;;6.67;1.50;;;4.60;62.20;;;;;;5097514;28;20252;-65
2022/04/03 09:51:12;;;;;;;2.63;1.60;;;4.60;62.20;;;;;;5096409;28;20571;-66
2022/04/03 09:53:49;;;;;;;2.37;1.70;;;4.70;60.00;;;;;;5096823;28;20168;-65
2022/04/03 09:56:27;;;;;;;4.10;1.60;;;4.70;58.30;;;;;;5099562;28;20220;-66
2022/04/03 09:58:53;;;;;;;2.37;1.30;;;4.80;57.90;;;;;;5099653;28;20164;-68
2022/04/03 10:01:42;;;;;;;2.27;1.50;;;4.90;57.20;;;;;;5102790;28;20155;-69
2022/04/03 10:04:09;;;;;;;3.30;2.20;;;4.60;56.60;;;;;;5104114;28;20171;-66
2022/04/03 10:06:38;;;;;;;1.40;1.30;;;4.50;57.40;;;;;;5100229;28;20553;-67
2022/04/03 10:09:04;;;;;;;1.37;1.27;;;4.30;56.60;;;;;;5114211;28;20607;-67
2022/04/03 10:11:30;;;;;;;2.27;1.20;;;4.40;55.90;;;;;;5113144;28;20182;-66
2022/04/03 10:13:56;;;;;;;2.27;1.70;;;4.40;55.30;;;;;;5108728;28;20479;-66
2022/04/03 10:16:22;;;;;;;3.67;1.50;;;4.40;54.40;;;;;;5103784;28;20212;-70
2022/04/03 10:18:50;;;;;;;3.03;1.63;;;4.60;53.60;;;;;;5092774;28;20161;-66
2022/04/03 10:21:41;;;;;;;1.87;1.43;;;4.60;53.20;;;;;;5070465;28;20189;-67
2022/04/03 10:24:25;;;;;;;2.80;1.80;;;4.80;53.20;;;;;;5092995;28;20160;-67
2022/04/03 10:27:15;;;;;;;3.77;1.63;;;4.80;53.20;;;;;;5091208;28;20295;-67
2022/04/03 10:29:43;;;;;;;2.17;1.43;;;5.10;53.60;;;;;;5100724;28;20188;-65
2022/04/03 10:32:20;;;;;;;1.57;1.40;;;5.20;52.60;;;;;;5077649;28;20153;-65
2022/04/03 10:34:49;;;;;;;4.00;1.47;;;5.30;52.00;;;;;;5076103;28;20163;-66
2022/04/03 10:37:23;;;;;;;2.43;1.40;;;5.30;52.20;;;;;;5075656;28;20522;-65
2022/04/03 10:39:53;;;;;;;2.93;1.47;;;5.30;53.80;;;;;;5075425;28;20632;-65
2022/04/03 10:42:25;;;;;;;1.73;1.57;;;5.20;54.10;;;;;;5074875;28;20167;-64
2022/04/03 10:45:12;;;;;;;1.37;1.27;;;5.00;54.20;;;;;;5075187;28;20157;-65
2022/04/03 10:47:45;;;;;;;2.07;1.80;;;4.90;54.50;;;;;;5096250;28;20199;-64
2022/04/03 10:50:12;;;;;;;1.90;1.47;;;4.80;54.80;;;;;;5115821;28;20170;-64
2022/04/03 10:52:38;;;;;;;2.73;1.53;;;4.60;55.40;;;;;;5115402;28;20167;-66
2022/04/03 10:55:20;;;;;;;1.30;1.20;;;4.70;55.90;;;;;;5115571;28;20318;-65
2022/04/03 10:58:03;;;;;;;2.10;1.80;;;5.00;55.40;;;;;;5115740;28;20181;-65
2022/04/03 11:00:32;;;;;;;2.23;1.30;;;5.20;55.00;;;;;;5115787;28;20239;-64
2022/04/03 11:02:58;;;;;;;1.50;1.40;;;5.50;54.20;;;;;;5115537;28;20179;-64
2022/04/03 11:05:26;;;;;;;1.40;1.10;;;5.60;53.90;;;;;;5096909;28;20178;-66
2022/04/03 11:08:02;;;;;;;2.37;1.33;;;5.80;53.00;;;;;;5115851;28;20167;-66
2022/04/03 11:10:57;;;;;;;5.63;1.70;;;5.80;52.30;;;;;;5115652;28;20170;-67
2022/04/03 11:13:28;;;;;;;1.50;1.40;;;5.70;52.00;;;;;;5114826;28;20162;-68
2022/04/03 11:15:56;;;;;;;1.40;1.30;;;6.20;51.70;;;;;;5115344;28;20195;-65
2022/04/03 11:18:49;;;;;;;1.50;1.30;;;6.70;50.70;;;;;;5115478;28;20164;-65
2022/04/03 11:21:22;;;;;;;1.57;1.30;;;6.80;50.00;;;;;;5115281;28;20160;-63
2022/04/03 11:24:06;;;;;;;2.43;1.60;;;6.90;49.30;;;;;;5115094;28;20166;-64
2022/04/03 11:26:32;;;;;;;3.00;1.40;;;6.30;48.40;;;;;;5076083;28;20170;-65
2022/04/03 11:28:58;;;;;;;7.57;1.50;;;6.50;48.20;;;;;;5055310;28;20260;-64
2022/04/03 11:31:25;;;;;;;1.53;1.40;;;6.60;47.50;;;;;;5094824;28;20194;-66
2022/04/03 11:33:51;;;;;;;3.83;1.87;;;6.50;47.40;;;;;;5094711;28;20569;-65
2022/04/03 11:36:20;;;;;;;2.63;1.30;;;6.80;47.60;;;;;;5076696;28;20700;-64
2022/04/03 11:38:50;;;;;;;2.00;1.13;;;6.50;47.50;;;;;;5094153;28;20195;-64
2022/04/03 11:41:28;;;;;;;1.17;1.10;;;6.20;48.60;;;;;;5093957;28;20504;-64
2022/04/03 11:44:05;;;;;;;2.20;1.60;;;6.10;49.40;;;;;;5094758;28;20181;-67
2022/04/03 11:46:40;;;;;;;1.13;1.03;;;6.20;50.50;;;;;;5094350;28;20483;-66
2022/04/03 11:49:25;;;;;;;6.63;2.43;;;6.00;51.30;;;;;;5094487;28;20164;-66
2022/04/03 11:52:07;;;;;;;1.40;1.30;;;5.90;52.00;;;;;;5094142;28;20183;-66
2022/04/03 11:54:34;;;;;;;1.20;1.10;;;5.80;52.30;;;;;;5093979;28;20225;-65
2022/04/03 11:57:10;;;;;;;3.83;1.70;;;6.30;53.30;;;;;;5095417;28;20197;-65
2022/04/03 11:59:38;;;;;;;2.53;1.50;;;6.40;52.70;;;;;;5097754;28;20166;-64
2022/04/03 12:02:14;;;;;;;1.73;1.60;;;6.10;53.70;;;;;;5097671;28;20211;-65
2022/04/03 12:04:41;;;;;;;4.60;1.80;;;6.00;54.60;;;;;;5097800;28;20245;-66
2022/04/03 12:07:12;;;;;;;2.30;1.73;;;6.50;55.20;;;;;;5096825;28;20199;-65
2022/04/03 12:09:40;;;;;;;2.67;1.53;;;6.30;54.60;;;;;;5094468;28;20164;-64
2022/04/03 12:12:06;;;;;;;1.83;1.40;;;6.20;55.00;;;;;;5098349;28;20159;-65
2022/04/03 12:14:34;;;;;;;1.47;1.30;;;6.50;54.30;;;;;;5093870;28;20167;-64
2022/04/03 12:17:07;;;;;;;2.63;1.73;;;6.80;51.90;;;;;;5075070;28;20232;-63
2022/04/03 12:19:42;;;;;;;2.13;1.67;;;6.90;51.60;;;;;;5092819;28;20229;-66
2022/04/03 12:22:10;;;;;;;1.77;1.67;;;6.70;51.60;;;;;;5094274;28;20488;-65
2022/04/03 12:24:38;;;;;;;2.20;1.60;;;6.70;52.10;;;;;;5095759;28;20161;-64
2022/04/03 12:27:15;;;;;;;1.50;1.40;;;6.50;52.00;;;;;;5093001;28;20171;-64
2022/04/03 12:29:46;;;;;;;2.83;1.60;;;6.40;52.80;;;;;;5095187;28;20192;-64
2022/04/03 12:32:13;;;;;;;2.63;1.77;;;6.20;53.60;;;;;;5095394;28;20150;-65
2022/04/03 12:34:40;;;;;;;2.67;1.73;;;6.20;54.70;;;;;;5096318;28;20184;-65
2022/04/03 12:37:08;;;;;;;2.17;1.77;;;6.10;55.00;;;;;;5094516;28;20213;-65
2022/04/03 12:39:38;;;;;;;1.87;1.60;;;6.20;53.90;;;;;;5093754;28;20233;-65
2022/04/03 12:42:13;;;;;;;1.60;1.33;;;5.80;53.00;;;;;;5093836;28;20194;-68
2022/04/03 12:44:42;;;;;;;2.13;1.37;;;6.50;53.60;;;;;;5097960;28;20215;-66
2022/04/03 12:47:15;;;;;;;1.63;1.40;;;6.70;52.30;;;;;;5096208;28;20609;-65
2022/04/03 12:49:48;;;;;;;2.37;1.60;;;7.00;51.80;;;;;;5095063;28;20167;-65
2022/04/03 12:52:45;;;;;;;1.43;1.33;;;6.90;51.30;;;;;;5094667;28;20168;-65
2022/04/03 12:55:32;;;;;;;1.97;1.60;;;6.30;51.30;;;;;;5047790;28;1283344;-65
2022/04/03 13:00:56;;;;;;;1.50;1.30;;;6.50;51.80;;;;;;5093591;28;20208;-64
2022/04/03 13:03:23;;;;;;;1.97;1.50;;;6.00;52.00;;;;;;5075889;28;20162;-65
2022/04/03 13:05:49;;;;;;;1.63;1.53;;;5.70;53.30;;;;;;5075354;28;20177;-65